WXM80 ListenWXM80 Stop

You find our weather info also at:

UK Metoffice

WeatherCloud

Weather Underground

Northeastern Weather Network

AWEKAS

Citizen Weather Observer Program (CWOP)

HAMweather, WeatherForYou, PWS Weather


Weather Underground History page Text

Daily Summary for April 18, 2017 Units:  Metric    English   Both
« Previous Day
Next Day »
Daily Weekly Monthly Yearly Custom
  High: Low: Average:
Temperature: 19.4 °C 7.7 °C 12.3 °C
Dew Point: 6.6 °C 1.9 °C 4.6 °C
Humidity: 82 % 37 % 61 %
Wind Speed: 15.6 km/h 0 km/h 5.3 km/h
Wind Gust: 29.6 km/h - -
Wind:- - ESE
Pressure: 1032.7 hPa 1019.5 hPa -
Precipitation: 0 mm    
Historical Graphs
 
 
Tabular Data for April 18, 2017
Time Temperature Dew Point Pressure Wind Wind Speed Wind Gust Humidity Rainfall Rate (Hourly)
00:04 13.9 °C 2.8 °C 1019.5 hPa WNW 1.9 km/h 7.4 km/h 47 % 0 mm
00:09 13.8 °C 2.7 °C 1019.5 hPa WNW 3.4 km/h 11.3 km/h 47 % 0 mm
00:14 13.7 °C 2.2 °C 1019.9 hPa WNW 4.3 km/h 9.7 km/h 46 % 0 mm
00:19 13.6 °C 1.9 °C 1019.9 hPa NW 3.7 km/h 9.3 km/h 45 % 0 mm
00:24 13.6 °C 2.2 °C 1020.2 hPa WNW 3.7 km/h 5.6 km/h 46 % 0 mm
00:29 13.5 °C 2.1 °C 1019.9 hPa NW 2.7 km/h 8 km/h 46 % 0 mm
00:34 13.4 °C 2.1 °C 1019.9 hPa WNW 3.7 km/h 5.6 km/h 46 % 0 mm
00:39 13.4 °C 2.3 °C 1020.2 hPa NNW 4.3 km/h 8 km/h 47 % 0 mm
00:44 13.3 °C 2.2 °C 1019.9 hPa WNW 1.8 km/h 5.6 km/h 47 % 0 mm
00:49 13.2 °C 2.4 °C 1020.2 hPa NW 0.5 km/h 5.6 km/h 48 % 0 mm
00:54 13.1 °C 2.1 °C 1020.2 hPa Calm   7.4 km/h 47 % 0 mm
00:59 13.1 °C 2 °C 1020.2 hPa Calm   3.7 km/h 47 % 0 mm
01:04 12.9 °C 1.9 °C 1020.2 hPa Calm     47 % 0 mm
01:09 12.8 °C 2.1 °C 1020.2 hPa NW 0.2 km/h 1.9 km/h 48 % 0 mm
01:14 12.8 °C 2.3 °C 1020.2 hPa NW 1.8 km/h 5.6 km/h 49 % 0 mm
01:19 12.7 °C 2.5 °C 1020.2 hPa North 4 km/h 5.6 km/h 50 % 0 mm
01:24 12.5 °C 2.3 °C 1020.2 hPa NNW 1.4 km/h 9.3 km/h 50 % 0 mm
01:29 12.3 °C 2.7 °C 1020.2 hPa North 4.3 km/h 6.4 km/h 52 % 0 mm
01:34 12.2 °C 3.2 °C 1020.2 hPa North 6.3 km/h 11.1 km/h 54 % 0 mm
01:39 12.1 °C 3.3 °C 1020.5 hPa NNE 2.7 km/h 5.6 km/h 55 % 0 mm
01:44 12 °C 3.7 °C 1020.5 hPa NE 2.7 km/h 5.6 km/h 57 % 0 mm
01:49 11.9 °C 4.1 °C 1020.5 hPa NE 1.1 km/h 3.7 km/h 59 % 0 mm
01:54 11.7 °C 3.7 °C 1020.5 hPa North 6.1 km/h 11.1 km/h 58 % 0 mm
01:59 11.6 °C 3.4 °C 1020.5 hPa North 8.4 km/h 13 km/h 57 % 0 mm
02:04 11.5 °C 3 °C 1020.5 hPa NNE 4 km/h 7.4 km/h 56 % 0 mm
02:09 11.4 °C 3.2 °C 1020.5 hPa NE 1.3 km/h 3.7 km/h 57 % 0 mm
02:14 11.3 °C 4.1 °C 1020.5 hPa Calm   1.9 km/h 61 % 0 mm
02:19 11.3 °C 4.3 °C 1020.9 hPa Calm     62 % 0 mm
02:24 11.2 °C 4.2 °C 1020.9 hPa Calm     62 % 0 mm
02:30 11.1 °C 4.3 °C 1020.5 hPa Calm     63 % 0 mm
02:35 10.9 °C 4.4 °C 1020.9 hPa Calm     64 % 0 mm
02:40 10.8 °C 4.3 °C 1020.9 hPa Calm   1.9 km/h 64 % 0 mm
02:45 10.8 °C 4.4 °C 1021.2 hPa Calm     65 % 0 mm
02:50 10.6 °C 4.5 °C 1021.2 hPa Calm   1.9 km/h 66 % 0 mm
02:55 10.5 °C 4.4 °C 1021.2 hPa NNE 4.2 km/h 5.6 km/h 66 % 0 mm
03:00 10.4 °C 4.5 °C 1021.2 hPa NNE 2.3 km/h 5.6 km/h 67 % 0 mm
03:05 10.3 °C 4.6 °C 1021.2 hPa NNE 1 km/h 7.4 km/h 68 % 0 mm
03:10 10.2 °C 4.7 °C 1021.6 hPa NNE 2.4 km/h 5.6 km/h 69 % 0 mm
03:15 10.1 °C 4.6 °C 1021.6 hPa NNE 3.7 km/h 5.6 km/h 69 % 0 mm
03:20 9.9 °C 4.5 °C 1021.6 hPa NNE 4 km/h 5.6 km/h 69 % 0 mm
03:25 9.8 °C 4.2 °C 1021.9 hPa NNE 3.2 km/h 5.6 km/h 68 % 0 mm
03:30 9.8 °C 4.3 °C 1021.9 hPa NNE 2.6 km/h 5.6 km/h 69 % 0 mm
03:35 9.7 °C 4.3 °C 1021.9 hPa NNE 3.5 km/h 5.6 km/h 69 % 0 mm
03:40 9.7 °C 4.3 °C 1021.9 hPa NNE 2.1 km/h 5.6 km/h 69 % 0 mm
03:45 9.6 °C 4.2 °C 1021.9 hPa NNE 3.2 km/h 5.6 km/h 69 % 0 mm
03:50 9.6 °C 4.6 °C 1022.2 hPa NNE 6.8 km/h 11.3 km/h 71 % 0 mm
03:55 9.5 °C 4.3 °C 1022.2 hPa NNE 8.7 km/h 13 km/h 70 % 0 mm
04:01 9.5 °C 4.5 °C 1022.2 hPa NNE 9.2 km/h 16.7 km/h 71 % 0 mm
04:06 9.5 °C 4.3 °C 1022.2 hPa North 9.3 km/h 13 km/h 70 % 0 mm
04:11 9.6 °C 3.9 °C 1022.6 hPa NNE 8 km/h 14.8 km/h 68 % 0 mm
04:15 9.6 °C 4.2 °C 1022.2 hPa North 5.3 km/h 9.3 km/h 69 % 0 mm
04:20 9.6 °C 4.2 °C 1022.6 hPa NNE 7.7 km/h 11.1 km/h 69 % 0 mm
04:25 9.6 °C 4.4 °C 1022.6 hPa NE 7.4 km/h 11.1 km/h 70 % 0 mm
04:30 9.6 °C 4.2 °C 1022.6 hPa North 9.2 km/h 13 km/h 69 % 0 mm
04:36 9.6 °C 4.2 °C 1022.6 hPa North 9.5 km/h 11.3 km/h 69 % 0 mm
04:41 9.6 °C 4.3 °C 1022.9 hPa NNE 8.5 km/h 13 km/h 70 % 0 mm
04:46 9.6 °C 4.6 °C 1022.9 hPa NNE 7.2 km/h 9.3 km/h 71 % 0 mm
04:51 9.5 °C 4.9 °C 1022.9 hPa NNE 6.6 km/h 9.3 km/h 73 % 0 mm
04:56 9.4 °C 4.8 °C 1023.2 hPa NNE 6.3 km/h 7.4 km/h 73 % 0 mm
05:01 9.3 °C 4.9 °C 1023.2 hPa NNE 6.6 km/h 9.3 km/h 74 % 0 mm
05:06 9.3 °C 4.5 °C 1023.2 hPa NNE 8.2 km/h 9.7 km/h 72 % 0 mm
05:11 9.2 °C 4.4 °C 1023.2 hPa North 3.7 km/h 9.3 km/h 72 % 0 mm
05:16 9.2 °C 4.4 °C 1023.6 hPa North 3.4 km/h 5.6 km/h 72 % 0 mm
05:21 9.1 °C 4.3 °C 1023.6 hPa NNE 5.3 km/h 7.4 km/h 72 % 0 mm
05:26 9.1 °C 4.3 °C 1023.2 hPa NNE 1.6 km/h 7.4 km/h 72 % 0 mm
05:31 9 °C 4.2 °C 1023.6 hPa North 4.7 km/h 7.4 km/h 72 % 0 mm
05:36 8.9 °C 4.4 °C 1023.6 hPa NNE 4.8 km/h 7.4 km/h 73 % 0 mm
05:41 8.9 °C 4.3 °C 1023.9 hPa North 5.1 km/h 5.6 km/h 73 % 0 mm
05:46 8.8 °C 4.4 °C 1023.9 hPa North 2.7 km/h 5.6 km/h 74 % 0 mm
05:51 8.8 °C 4.4 °C 1023.9 hPa NNE 3.5 km/h 5.6 km/h 74 % 0 mm
05:56 8.7 °C 4.3 °C 1023.9 hPa NNE 6.3 km/h 9.7 km/h 74 % 0 mm
06:01 8.7 °C 4.5 °C 1024.3 hPa NNE 2.6 km/h 5.6 km/h 75 % 0 mm
06:06 8.6 °C 4.4 °C 1024.3 hPa North 4.2 km/h 6.4 km/h 75 % 0 mm
06:11 8.6 °C 4.4 °C 1024.6 hPa NNW 3.7 km/h 9.3 km/h 75 % 0 mm
06:17 8.5 °C 4.3 °C 1024.6 hPa NNE 4.8 km/h 7.4 km/h 75 % 0 mm
06:22 8.5 °C 4.3 °C 1024.6 hPa North 4.2 km/h 11.1 km/h 75 % 0 mm
06:24 8.4 °C 4.3 °C 1024.6 hPa NNE 4.5 km/h 9.3 km/h 75 % 0 mm
06:29 8.5 °C 4.3 °C 1024.6 hPa North 4.7 km/h 7.4 km/h 75 % 0 mm
06:34 8.5 °C 4.5 °C 1024.9 hPa North 4.5 km/h 6.4 km/h 76 % 0 mm
06:39 8.6 °C 4.8 °C 1024.9 hPa North 4.3 km/h 5.6 km/h 77 % 0 mm
06:44 8.6 °C 4.6 °C 1024.9 hPa NNE 6 km/h 7.4 km/h 76 % 0 mm
06:49 8.7 °C 4.5 °C 1024.9 hPa NNE 6 km/h 9.3 km/h 75 % 0 mm
06:54 8.8 °C 4.4 °C 1024.9 hPa NNE 5 km/h 7.4 km/h 74 % 0 mm
06:59 9 °C 4.6 °C 1024.9 hPa North 4 km/h 5.6 km/h 74 % 0 mm
07:04 9.2 °C 4.8 °C 1025.3 hPa NNE 4 km/h 9.3 km/h 74 % 0 mm
07:09 9.3 °C 4.9 °C 1025.3 hPa NNE 6.8 km/h 9.7 km/h 74 % 0 mm
07:14 9.6 °C 5.2 °C 1025.6 hPa NNE 6 km/h 11.1 km/h 74 % 0 mm
07:19 9.7 °C 5.1 °C 1025.6 hPa NNE 6.3 km/h 9.7 km/h 73 % 0 mm
07:20 9.8 °C 5.2 °C 1025.6 hPa NNE 7.6 km/h 11.1 km/h 73 % 0 mm
07:25 10 °C 5.2 °C 1025.6 hPa NNE 6.1 km/h 8 km/h 72 % 0 mm
07:30 10.2 °C 5.2 °C 1025.6 hPa North 3.7 km/h 8 km/h 71 % 0 mm
07:35 10.3 °C 5.1 °C 1025.6 hPa NE 4.8 km/h 8 km/h 70 % 0 mm
07:40 10.5 °C 5.4 °C 1025.6 hPa North 5.5 km/h 11.3 km/h 71 % 0 mm
07:46 10.6 °C 5.6 °C 1025.6 hPa NNE 5.6 km/h 9.3 km/h 71 % 0 mm
07:51 10.7 °C 5.7 °C 1025.6 hPa NE 3.1 km/h 5.6 km/h 71 % 0 mm
07:56 10.8 °C 5.8 °C 1026 hPa NNE 4.5 km/h 7.4 km/h 71 % 0 mm
08:01 10.9 °C 5.9 °C 1025.6 hPa North 3.9 km/h 6.4 km/h 71 % 0 mm
08:06 11.1 °C 5.6 °C 1026 hPa North 5.5 km/h 9.3 km/h 69 % 0 mm
08:11 11.1 °C 5.6 °C 1026 hPa NNE 6 km/h 8 km/h 69 % 0 mm
08:16 11.1 °C 5.6 °C 1026 hPa North 7.6 km/h 9.3 km/h 69 % 0 mm
08:21 11.2 °C 5.7 °C 1026.3 hPa North 5.8 km/h 11.3 km/h 69 % 0 mm
08:26 11.2 °C 5.7 °C 1026.3 hPa North 9.7 km/h 13 km/h 69 % 0 mm
08:31 11.2 °C 5.7 °C 1026.3 hPa NNE 9.3 km/h 14.8 km/h 69 % 0 mm
08:36 11.3 °C 5.8 °C 1026.3 hPa NE 6.6 km/h 9.3 km/h 69 % 0 mm
08:41 11.4 °C 5.7 °C 1026.3 hPa NE 9.5 km/h 14.8 km/h 68 % 0 mm
08:46 11.6 °C 6.1 °C 1026.3 hPa NNE 9.2 km/h 16.7 km/h 69 % 0 mm
08:51 11.8 °C 6.1 °C 1026.3 hPa North 6.8 km/h 11.1 km/h 68 % 0 mm
08:57 12.1 °C 6.3 °C 1026.3 hPa NNE 8.2 km/h 13 km/h 68 % 0 mm
09:02 12.2 °C 6 °C 1026.3 hPa North 9.7 km/h 14.8 km/h 66 % 0 mm
09:07 12.3 °C 6.1 °C 1026.3 hPa NNE 7.1 km/h 12.9 km/h 66 % 0 mm
09:12 12.5 °C 6.1 °C 1026.6 hPa NNE 8 km/h 11.1 km/h 65 % 0 mm
09:17 12.7 °C 5.8 °C 1026.6 hPa NE 7.1 km/h 9.3 km/h 63 % 0 mm
09:22 13 °C 6.1 °C 1026.6 hPa NNE 5.3 km/h 7.4 km/h 63 % 0 mm
09:27 13.2 °C 5.8 °C 1026.6 hPa NE 4.8 km/h 6.4 km/h 61 % 0 mm
09:32 13.4 °C 5.8 °C 1027 hPa NNW 4.8 km/h 7.4 km/h 60 % 0 mm
09:37 13.7 °C 6.5 °C 1027 hPa NNE 5.5 km/h 7.4 km/h 62 % 0 mm
09:42 13.9 °C 6.1 °C 1027 hPa NNE 3.4 km/h 6.4 km/h 59 % 0 mm
09:47 14.1 °C 5.7 °C 1027 hPa NNE 8 km/h 11.3 km/h 57 % 0 mm
09:52 14.2 °C 5.6 °C 1027.3 hPa NNE 4.8 km/h 9.7 km/h 56 % 0 mm
09:57 14.4 °C 6.5 °C 1027.3 hPa ENE 4.2 km/h 7.4 km/h 59 % 0 mm
10:02 14.4 °C 5.4 °C 1027.3 hPa ENE 5.1 km/h 11.1 km/h 55 % 0 mm
10:07 14.4 °C 6 °C 1027.3 hPa ENE 3.2 km/h 9.7 km/h 57 % 0 mm
10:12 14.3 °C 4.9 °C 1027.3 hPa ENE 3.2 km/h 12.9 km/h 53 % 0 mm
10:17 14.3 °C 5.2 °C 1027.3 hPa ENE 8 km/h 9.7 km/h 54 % 0 mm
10:22 14.3 °C 4.8 °C 1027.3 hPa ENE 9.7 km/h 16.1 km/h 53 % 0 mm
10:27 14.2 °C 5.3 °C 1027.3 hPa ENE 8 km/h 12.9 km/h 55 % 0 mm
10:32 14.4 °C 4.9 °C 1027.7 hPa East 6 km/h 11.1 km/h 53 % 0 mm
10:37 14.4 °C 4.9 °C 1027.7 hPa ENE 5.8 km/h 9.3 km/h 53 % 0 mm
10:42 14.6 °C 5.4 °C 1027.7 hPa East 5 km/h 9.7 km/h 54 % 0 mm
10:47 14.8 °C 5.3 °C 1027.7 hPa East 3.9 km/h 11.3 km/h 53 % 0 mm
10:52 14.9 °C 4.8 °C 1027.7 hPa ENE 8 km/h 12.9 km/h 51 % 0 mm
10:57 15 °C 4.9 °C 1027.7 hPa East 4.2 km/h 5.6 km/h 51 % 0 mm
11:02 15.3 °C 4.9 °C 1027.7 hPa ENE 4.7 km/h 7.4 km/h 50 % 0 mm
11:07 15.3 °C 4.4 °C 1027.7 hPa ENE 2.3 km/h 11.1 km/h 48 % 0 mm
11:12 15.5 °C 4.8 °C 1027.7 hPa ENE 4.7 km/h 11.1 km/h 49 % 0 mm
11:17 15.3 °C 4 °C 1027.7 hPa East 3.5 km/h 9.3 km/h 47 % 0 mm
11:22 15.3 °C 4.6 °C 1027.7 hPa ENE 3.2 km/h 8 km/h 49 % 0 mm
11:27 15.4 °C 4.2 °C 1027.7 hPa East 3.1 km/h 11.1 km/h 47 % 0 mm
11:32 15.6 °C 4.6 °C 1027.7 hPa ENE 4 km/h 11.1 km/h 48 % 0 mm
11:37 15.7 °C 5 °C 1027.7 hPa ENE 1.8 km/h 7.4 km/h 49 % 0 mm
11:42 15.9 °C 4.6 °C 1027.7 hPa ESE 3.2 km/h 5.6 km/h 47 % 0 mm
11:47 16.2 °C 4.3 °C 1027.7 hPa East 2.6 km/h 5.6 km/h 45 % 0 mm
11:52 16.6 °C 4.9 °C 1027.7 hPa ENE 4 km/h 8 km/h 46 % 0 mm
11:58 16.9 °C 5.5 °C 1027.7 hPa ENE 5.5 km/h 9.3 km/h 47 % 0 mm
12:03 17.1 °C 4.4 °C 1027.7 hPa East 0.6 km/h 4.8 km/h 43 % 0 mm
12:08 17.2 °C 5.5 °C 1027.7 hPa NNE 3.2 km/h 7.4 km/h 46 % 0 mm
12:13 17.6 °C 5.8 °C 1027.7 hPa East 4.5 km/h 9.7 km/h 46 % 0 mm
12:14 17.7 °C 5.3 °C 1027.7 hPa East 3.5 km/h 9.3 km/h 44 % 0 mm
12:19 17.7 °C 5 °C 1027.7 hPa NNW 2.1 km/h 6.4 km/h 43 % 0 mm
12:24 17.7 °C 4.9 °C 1027.3 hPa NE 4.7 km/h 9.7 km/h 43 % 0 mm
12:29 17.5 °C 4.8 °C 1027.3 hPa ENE 2.1 km/h 13 km/h 43 % 0 mm
12:34 17.3 °C 4.6 °C 1027.3 hPa East 0.2 km/h 3.7 km/h 43 % 0 mm
12:39 17.4 °C 5 °C 1027.3 hPa NE 2.6 km/h 7.4 km/h 44 % 0 mm
12:44 17.4 °C 4.4 °C 1027.3 hPa NNE 5 km/h 7.4 km/h 42 % 0 mm
12:49 17.4 °C 5 °C 1027.3 hPa ENE 5 km/h 7.4 km/h 44 % 0 mm
12:55 17.6 °C 5.2 °C 1027.3 hPa NNE 0.3 km/h 5.6 km/h 44 % 0 mm
13:00 17.9 °C 5.1 °C 1027.3 hPa NNE 3.4 km/h 8 km/h 43 % 0 mm
13:05 18.3 °C 5.2 °C 1027.3 hPa NNE 5.6 km/h 5.6 km/h 42 % 0 mm
13:10 18.3 °C 4.1 °C 1027.3 hPa ENE 4.7 km/h 7.4 km/h 39 % 0 mm
13:15 18.5 °C 5.3 °C 1027.3 hPa North 4 km/h 7.4 km/h 42 % 0 mm
13:20 18.8 °C 4.9 °C 1027.3 hPa NNE 4.2 km/h 7.4 km/h 40 % 0 mm
13:25 19.1 °C 4.8 °C 1027.3 hPa North 4.8 km/h 7.4 km/h 39 % 0 mm
13:30 19.2 °C 4.9 °C 1027.3 hPa North 6.8 km/h 9.3 km/h 39 % 0 mm
13:35 19.2 °C 4.6 °C 1027.3 hPa NNE 5.5 km/h 7.4 km/h 38 % 0 mm
13:40 19.3 °C 4.7 °C 1027.3 hPa North 7.1 km/h 8 km/h 38 % 0 mm
13:45 19.4 °C 4.4 °C 1027.3 hPa East 5.6 km/h 12.9 km/h 37 % 0 mm
13:50 19 °C 4.3 °C 1027.3 hPa ENE 4.2 km/h 9.3 km/h 38 % 0 mm
13:55 18.4 °C 4.2 °C 1027.3 hPa ENE 6.4 km/h 11.1 km/h 39 % 0 mm
14:00 17.8 °C 3.3 °C 1027.3 hPa ENE 6.1 km/h 8 km/h 38 % 0 mm
14:05 17.8 °C 4.7 °C 1027.3 hPa ENE 4.3 km/h 6.4 km/h 42 % 0 mm
14:10 17.8 °C 4.3 °C 1027.3 hPa ENE 5.1 km/h 7.4 km/h 41 % 0 mm
14:15 17.7 °C 4.2 °C 1027.3 hPa ENE 6 km/h 7.4 km/h 41 % 0 mm
14:20 17.4 °C 3.7 °C 1027.3 hPa ENE 4.8 km/h 5.6 km/h 40 % 0 mm
14:26 17.4 °C 4.4 °C 1027.3 hPa NE 4.7 km/h 5.6 km/h 42 % 0 mm
14:31 17.7 °C 5 °C 1027.3 hPa NE 4.3 km/h 5.6 km/h 43 % 0 mm
14:36 17.9 °C 5.2 °C 1027.3 hPa SSE 6.3 km/h 16.7 km/h 43 % 0 mm
14:41 18.1 °C 6.6 °C 1027.3 hPa ESE 4.5 km/h 7.4 km/h 47 % 0 mm
14:46 17.9 °C 6.4 °C 1027.3 hPa SE 11.7 km/h 18.5 km/h 47 % 0 mm
14:51 17.5 °C 5.4 °C 1027.3 hPa South 7.9 km/h 14.8 km/h 45 % 0 mm
14:56 17.2 °C 5.4 °C 1027.3 hPa SE 8.2 km/h 18.5 km/h 46 % 0 mm
15:01 16.8 °C 5.1 °C 1027.3 hPa SE 13.5 km/h 22.2 km/h 46 % 0 mm
15:06 16.3 °C 5.2 °C 1027.3 hPa SE 11.4 km/h 18.5 km/h 48 % 0 mm
15:12 15.9 °C 5.5 °C 1027.3 hPa South 8.5 km/h 18.5 km/h 50 % 0 mm
15:17 15.8 °C 5.1 °C 1027.7 hPa South 13.5 km/h 14.5 km/h 49 % 0 mm
15:22 15.5 °C 5.1 °C 1027.3 hPa SE 7.4 km/h 22.2 km/h 50 % 0 mm
15:27 15.6 °C 5.4 °C 1027.3 hPa SW 7.2 km/h 11.1 km/h 51 % 0 mm
15:32 15.7 °C 5.6 °C 1027.7 hPa SSE 7.7 km/h 13 km/h 51 % 0 mm
15:37 15.8 °C 5.7 °C 1027.3 hPa SSW 5.6 km/h 11.1 km/h 51 % 0 mm
15:42 15.7 °C 5 °C 1027.3 hPa SSW 3.1 km/h 16.7 km/h 49 % 0 mm
15:47 15.8 °C 5.7 °C 1027.7 hPa SSE 7.1 km/h 16.7 km/h 51 % 0 mm
15:53 15.8 °C 5.4 °C 1027.3 hPa South 8.9 km/h 14.8 km/h 50 % 0 mm
15:58 15.4 °C 5.1 °C 1027.7 hPa South 7.1 km/h 29.6 km/h 50 % 0 mm
16:03 15.3 °C 5.5 °C 1027.7 hPa South 7.2 km/h 12.9 km/h 52 % 0 mm
16:08 15.1 °C 5.6 °C 1027.7 hPa South 8.4 km/h 13 km/h 53 % 0 mm
16:13 15.2 °C 5.7 °C 1028 hPa SSW 8.4 km/h 16.1 km/h 53 % 0 mm
16:18 15.1 °C 5.6 °C 1027.7 hPa ESE 8.9 km/h 18.5 km/h 53 % 0 mm
16:23 15.1 °C 5.6 °C 1027.7 hPa SSE 6.8 km/h 14.8 km/h 53 % 0 mm
16:28 15.1 °C 5.6 °C 1027.7 hPa South 8.5 km/h 16.7 km/h 53 % 0 mm
16:33 14.9 °C 5.1 °C 1028 hPa SSW 11.7 km/h 18.5 km/h 52 % 0 mm
16:38 14.9 °C 5.2 °C 1027.7 hPa SE 8.9 km/h 18.5 km/h 52 % 0 mm
16:43 14.8 °C 5 °C 1027.7 hPa SSE 13.2 km/h 19.3 km/h 52 % 0 mm
16:48 14.6 °C 5.1 °C 1027.7 hPa SSE 7.9 km/h 18.5 km/h 53 % 0 mm
16:54 14.4 °C 5.2 °C 1027.7 hPa SE 6.4 km/h 18.5 km/h 54 % 0 mm
16:59 14.3 °C 5.2 °C 1028 hPa SSE 9.5 km/h 12.9 km/h 54 % 0 mm
17:04 14.3 °C 4.9 °C 1028 hPa SSE 6.3 km/h 14.8 km/h 53 % 0 mm
17:09 14.3 °C 5.2 °C 1028 hPa SSE 9.3 km/h 16.7 km/h 54 % 0 mm
17:14 14.3 °C 4.9 °C 1028 hPa South 7.9 km/h 16.1 km/h 53 % 0 mm
17:19 14.2 °C 4.5 °C 1028.3 hPa SSE 10 km/h 14.5 km/h 52 % 0 mm
17:24 14.1 °C 4.7 °C 1028.3 hPa SE 9 km/h 17.7 km/h 53 % 0 mm
17:29 14 °C 4.3 °C 1028.3 hPa SE 13 km/h 16.7 km/h 52 % 0 mm
17:34 13.9 °C 4.4 °C 1028.3 hPa SE 5.1 km/h 14.8 km/h 53 % 0 mm
17:39 13.8 °C 4.7 °C 1028.3 hPa SE 3.1 km/h 14.8 km/h 54 % 0 mm
17:44 13.8 °C 4.3 °C 1028 hPa South 6.8 km/h 18.5 km/h 53 % 0 mm
17:49 13.7 °C 4.3 °C 1028.3 hPa SSE 5.8 km/h 14.8 km/h 53 % 0 mm
17:54 13.6 °C 3.9 °C 1028.3 hPa SSE 13.2 km/h 20.4 km/h 52 % 0 mm
17:59 13.4 °C 4 °C 1028.3 hPa South 7.7 km/h 14.8 km/h 53 % 0 mm
18:04 13.3 °C 3.9 °C 1028.3 hPa South 7.7 km/h 18.5 km/h 53 % 0 mm
18:09 13.3 °C 3.6 °C 1028.3 hPa South 10.3 km/h 14.8 km/h 52 % 0 mm
18:15 13.1 °C 3.4 °C 1028.7 hPa South 5.6 km/h 14.8 km/h 52 % 0 mm
18:20 12.9 °C 3.6 °C 1028.7 hPa SE 11.4 km/h 18.5 km/h 53 % 0 mm
18:25 12.7 °C 3.4 °C 1028.3 hPa SSE 11.3 km/h 22.2 km/h 53 % 0 mm
18:30 12.6 °C 3.5 °C 1028.7 hPa SSE 4.8 km/h 11.1 km/h 54 % 0 mm
18:35 12.4 °C 3.7 °C 1028.7 hPa SSW 9.3 km/h 22.2 km/h 55 % 0 mm
18:40 12.3 °C 3.7 °C 1028.7 hPa SSE 5.8 km/h 14.8 km/h 56 % 0 mm
18:45 12.2 °C 3.9 °C 1028.7 hPa SE 7.7 km/h 12.9 km/h 57 % 0 mm
18:50 12 °C 3.7 °C 1029 hPa SE 7.6 km/h 18.5 km/h 57 % 0 mm
18:55 11.8 °C 4 °C 1029 hPa SE 5.3 km/h 14.8 km/h 59 % 0 mm
19:00 11.7 °C 3.9 °C 1029 hPa SSE 10.3 km/h 16.1 km/h 59 % 0 mm
19:05 11.4 °C 3.4 °C 1029.3 hPa SSE 10.5 km/h 18.5 km/h 58 % 0 mm
19:10 11.2 °C 2.9 °C 1029.3 hPa SSE 15.6 km/h 24.1 km/h 57 % 0 mm
19:15 10.9 °C 2.9 °C 1029.7 hPa SSE 8.9 km/h 14.8 km/h 58 % 0 mm
19:20 10.8 °C 3.1 °C 1029.7 hPa SE 12.1 km/h 18.5 km/h 59 % 0 mm
19:25 10.6 °C 2.9 °C 1029.7 hPa SSE 6.4 km/h 18.5 km/h 59 % 0 mm
19:30 10.4 °C 2.8 °C 1029.7 hPa SE 10.9 km/h 16.7 km/h 59 % 0 mm
19:35 10.3 °C 2.9 °C 1029.7 hPa SSE 8.5 km/h 13 km/h 60 % 0 mm
19:40 10.3 °C 2.8 °C 1030 hPa SSE 7.9 km/h 18.5 km/h 60 % 0 mm
19:45 10.2 °C 3 °C 1030 hPa SSE 12.2 km/h 19.3 km/h 61 % 0 mm
19:50 10.1 °C 2.9 °C 1030 hPa SE 5 km/h 7.4 km/h 61 % 0 mm
19:56 10 °C 3.1 °C 1030.4 hPa SE 6.8 km/h 12.9 km/h 62 % 0 mm
20:01 9.9 °C 3.2 °C 1030.4 hPa South 5.1 km/h 11.1 km/h 63 % 0 mm
20:06 9.8 °C 3.3 °C 1030.4 hPa SSE 9.2 km/h 16.7 km/h 64 % 0 mm
20:11 9.7 °C 3.7 °C 1030.7 hPa SE 10.3 km/h 16.7 km/h 66 % 0 mm
20:16 9.6 °C 3.8 °C 1030.7 hPa SE 6.6 km/h 13 km/h 67 % 0 mm
20:21 9.6 °C 3.9 °C 1030.7 hPa ESE 8.4 km/h 14.8 km/h 68 % 0 mm
20:26 9.4 °C 4.2 °C 1030.7 hPa ESE 6.1 km/h 18.5 km/h 70 % 0 mm
20:31 9.4 °C 4.4 °C 1031 hPa SSE 9.2 km/h 11.1 km/h 71 % 0 mm
20:36 9.3 °C 4.3 °C 1031 hPa SE 5 km/h 7.4 km/h 71 % 0 mm
20:41 9.3 °C 4.5 °C 1031 hPa SE 3.9 km/h 11.1 km/h 72 % 0 mm
20:46 9.2 °C 4.8 °C 1031 hPa ESE 6.3 km/h 14.8 km/h 74 % 0 mm
20:51 9.1 °C 4.7 °C 1031 hPa SE 9.3 km/h 14.8 km/h 74 % 0 mm
20:56 9.1 °C 4.8 °C 1031 hPa SE 8 km/h 18.5 km/h 75 % 0 mm
21:01 9 °C 5 °C 1031.4 hPa SSE 5.1 km/h 9.3 km/h 76 % 0 mm
21:06 8.9 °C 5.1 °C 1031.4 hPa SSE 6.8 km/h 11.1 km/h 77 % 0 mm
21:11 8.9 °C 5.1 °C 1031.4 hPa SE 0.8 km/h 5.6 km/h 77 % 0 mm
21:16 8.8 °C 5.2 °C 1031.7 hPa Calm     78 % 0 mm
21:22 8.8 °C 5.2 °C 1031.7 hPa SE 3.1 km/h 9.7 km/h 78 % 0 mm
21:27 8.8 °C 5.4 °C 1031.7 hPa ESE 5.5 km/h 7.4 km/h 79 % 0 mm
21:32 8.8 °C 5.3 °C 1031.7 hPa SE 4.3 km/h 7.4 km/h 79 % 0 mm
21:36 8.8 °C 5.5 °C 1031.7 hPa SSE 2.9 km/h 9.3 km/h 80 % 0 mm
21:41 8.8 °C 5.5 °C 1031.7 hPa SE 3.4 km/h 7.4 km/h 80 % 0 mm
21:47 8.8 °C 5.5 °C 1031.7 hPa SE 3.1 km/h 9.7 km/h 80 % 0 mm
21:52 8.8 °C 5.6 °C 1032.1 hPa SE 1.4 km/h 3.7 km/h 80 % 0 mm
21:53 8.8 °C 5.6 °C 1032.1 hPa SE 0.6 km/h 3.7 km/h 80 % 0 mm
21:58 8.8 °C 5.6 °C 1032.1 hPa SE 3.4 km/h 14.8 km/h 80 % 0 mm
22:03 8.8 °C 5.6 °C 1032.4 hPa SE 0.6 km/h 3.7 km/h 80 % 0 mm
22:08 8.8 °C 5.4 °C 1032.4 hPa SE 1.6 km/h 5.6 km/h 79 % 0 mm
22:13 8.8 °C 5.4 °C 1032.4 hPa ESE 1.1 km/h 5.6 km/h 79 % 0 mm
22:18 8.8 °C 5.4 °C 1032.4 hPa ESE 1.6 km/h 5.6 km/h 79 % 0 mm
22:23 8.8 °C 5.4 °C 1032.4 hPa ESE 9.5 km/h 16.7 km/h 79 % 0 mm
22:28 8.8 °C 5.3 °C 1032.4 hPa SSE 4.8 km/h 9.3 km/h 79 % 0 mm
22:33 8.7 °C 5.3 °C 1032.4 hPa East 1.9 km/h 3.7 km/h 79 % 0 mm
22:38 8.7 °C 5.3 °C 1032.4 hPa ESE 2.7 km/h 7.4 km/h 79 % 0 mm
22:43 8.7 °C 5.2 °C 1032.4 hPa South 2.9 km/h 5.6 km/h 79 % 0 mm
22:48 8.6 °C 5.2 °C 1032.4 hPa East 3.1 km/h 9.3 km/h 79 % 0 mm
22:53 8.5 °C 5.1 °C 1032.4 hPa SE 0.5 km/h 3.7 km/h 79 % 0 mm
22:58 8.4 °C 5 °C 1032.4 hPa SE 1.9 km/h 5.6 km/h 79 % 0 mm
23:03 8.3 °C 4.9 °C 1032.4 hPa ESE 2.3 km/h 5.6 km/h 79 % 0 mm
23:09 8.2 °C 4.8 °C 1032.7 hPa ESE 2.3 km/h 5.6 km/h 79 % 0 mm
23:14 8.2 °C 4.9 °C 1032.7 hPa SE 1.6 km/h 3.7 km/h 80 % 0 mm
23:19 8.1 °C 4.8 °C 1032.7 hPa SE 1.4 km/h 3.7 km/h 80 % 0 mm
23:24 8 °C 4.8 °C 1032.7 hPa SSE 1.3 km/h 3.7 km/h 80 % 0 mm
23:29 7.9 °C 4.7 °C 1032.7 hPa Calm   5.6 km/h 80 % 0 mm
23:34 7.9 °C 4.8 °C 1032.7 hPa Calm     81 % 0 mm
23:39 7.8 °C 4.8 °C 1032.7 hPa Calm     81 % 0 mm
23:44 7.8 °C 4.8 °C 1032.4 hPa SSE 0.3 km/h 3.7 km/h 81 % 0 mm
23:49 7.8 °C 4.9 °C 1032.4 hPa Calm     82 % 0 mm
23:54 7.7 °C 4.8 °C 1032.4 hPa Calm     82 % 0 mm
23:59 7.7 °C 4.8 °C 1032.4 hPa SSE 1.4 km/h 3.2 km/h 82 % 0 mm
Crab Meadow Weather
Compliments of Weather Underground - 3 mb

Script developed by  Jim McMurry - jmcmurry@mwt.net Adapted for the template by  Wim van der Kuil - Leuven-Template.eu

Weather Terms: Flash Flood Warning - Flash flooding is occurring, imminent or highly likely. A flash flood is a flood that occurs within 6 hours of excessive rainfall and that poses a threat to life and/or property. Ice jams and dam failures can also cause flash floods. These warnings are issued on a county by county basis by the local Weather Forecast Office in Upton and are generally in effect for up to 6 hours.